createdAt,value
2022-10-04T00:02:31.893Z,80.68
2022-10-04T00:05:05.228Z,81.20
2022-10-04T00:07:41.006Z,82.82
2022-10-04T00:10:21.076Z,82.49
2022-10-04T00:12:52.452Z,82.60
2022-10-04T00:15:25.141Z,81.62
2022-10-04T00:18:10.800Z,82.03
2022-10-04T00:20:50.721Z,81.72
2022-10-04T00:23:24.212Z,81.77
2022-10-04T00:26:01.373Z,81.64
2022-10-04T00:28:37.750Z,81.94
2022-10-04T00:31:08.153Z,81.17
2022-10-04T00:33:51.385Z,81.42
2022-10-04T00:36:24.952Z,81.73
2022-10-04T00:39:07.407Z,81.23
2022-10-04T00:41:46.764Z,82.91
2022-10-04T00:44:47.138Z,81.54
2022-10-04T00:47:41.253Z,81.69
2022-10-04T00:50:18.782Z,80.89
2022-10-04T00:52:53.552Z,81.98
2022-10-04T00:55:34.570Z,81.53
2022-10-04T00:58:06.906Z,81.36
2022-10-04T01:00:36.390Z,80.19
2022-10-04T01:03:20.168Z,80.68
2022-10-04T01:05:54.590Z,80.53
2022-10-04T01:08:48.214Z,80.50
2022-10-04T01:11:21.354Z,82.47
2022-10-04T01:13:55.380Z,82.73
2022-10-04T01:16:33.700Z,82.29
2022-10-04T01:19:22.634Z,82.99
2022-10-04T01:22:05.152Z,82.73
2022-10-04T01:24:37.860Z,83.79
2022-10-04T01:27:27.537Z,84.13
2022-10-04T01:29:55.102Z,84.06
2022-10-04T01:32:23.226Z,83.34
2022-10-04T01:34:50.756Z,82.75
2022-10-04T01:37:18.797Z,82.41
2022-10-04T01:39:46.893Z,82.40
2022-10-04T01:42:30.184Z,81.08
2022-10-04T01:45:24.675Z,82.48
2022-10-04T01:48:15.938Z,82.50
2022-10-04T01:50:59.712Z,83.24
2022-10-04T01:53:34.980Z,83.49
2022-10-04T01:56:13.403Z,82.98
2022-10-04T01:58:45.496Z,84.21
2022-10-04T02:01:24.194Z,84.41
2022-10-04T02:04:19.875Z,85.04
2022-10-04T02:06:56.339Z,85.46
2022-10-04T02:09:30.545Z,85.45
2022-10-04T02:11:59.736Z,86.55
2022-10-04T02:14:39.252Z,87.14
2022-10-04T02:17:10.810Z,86.72
2022-10-04T02:19:41.643Z,86.43
2022-10-04T02:22:11.006Z,87.58
2022-10-04T02:24:43.011Z,93.02
2022-10-04T02:27:10.996Z,96.95
2022-10-04T02:29:38.796Z,96.73
2022-10-04T02:32:27.162Z,93.71
2022-10-04T02:34:56.517Z,92.59
2022-10-04T02:37:26.760Z,91.73
2022-10-04T02:39:58.154Z,90.61
2022-10-04T02:42:45.274Z,90.22
2022-10-04T02:45:33.482Z,90.54
2022-10-04T02:48:22.639Z,91.46
2022-10-04T02:50:53.870Z,93.15
2022-10-04T02:53:42.247Z,94.21
2022-10-04T02:56:12.252Z,93.19
2022-10-04T02:58:41.302Z,91.57
2022-10-04T03:01:18.013Z,92.29
2022-10-04T03:03:47.773Z,93.09
2022-10-04T03:06:19.366Z,91.11
2022-10-04T03:08:50.187Z,87.17
2022-10-04T03:11:22.718Z,88.88
2022-10-04T03:13:53.816Z,87.93
2022-10-04T03:16:21.889Z,88.76
2022-10-04T03:18:51.567Z,89.60
2022-10-04T03:21:21.868Z,88.85
2022-10-04T03:23:52.232Z,88.12
2022-10-04T03:26:43.581Z,88.70
2022-10-04T03:29:14.091Z,90.42
2022-10-04T03:31:50.096Z,89.86
2022-10-04T03:34:24.875Z,90.33
2022-10-04T03:36:56.333Z,90.16
2022-10-04T03:39:43.104Z,91.62
2022-10-04T03:42:34.760Z,91.52
2022-10-04T03:45:07.253Z,92.03
2022-10-04T03:47:41.141Z,94.53
2022-10-04T03:50:26.972Z,91.72
2022-10-04T03:52:58.898Z,90.19
2022-10-04T03:55:34.089Z,90.71
2022-10-04T03:58:02.657Z,91.48
2022-10-04T04:00:30.399Z,93.48
2022-10-04T04:03:05.915Z,94.17
2022-10-04T04:05:37.302Z,91.62
2022-10-04T04:08:18.006Z,90.97
2022-10-04T04:10:53.263Z,90.24
2022-10-04T04:13:35.699Z,90.68
2022-10-04T04:16:05.634Z,91.22
2022-10-04T04:18:38.736Z,91.08
2022-10-04T04:21:08.169Z,89.34
2022-10-04T04:23:43.290Z,89.55
2022-10-04T04:26:31.464Z,89.58
2022-10-04T04:29:04.730Z,91.05
2022-10-04T04:31:38.002Z,91.43
2022-10-04T04:34:18.902Z,92.94
2022-10-04T04:36:46.699Z,94.03
2022-10-04T04:39:39.919Z,91.80
2022-10-04T04:42:10.543Z,90.56
2022-10-04T04:44:46.047Z,90.66
2022-10-04T04:47:27.300Z,91.77
2022-10-04T04:50:03.744Z,91.36
2022-10-04T04:52:32.747Z,93.49
2022-10-04T04:55:01.007Z,93.14
2022-10-04T04:57:28.766Z,91.92
2022-10-04T04:59:59.592Z,91.21
2022-10-04T05:02:37.783Z,90.70
2022-10-04T05:05:32.775Z,90.43
2022-10-04T05:08:27.939Z,89.34
2022-10-04T05:10:58.305Z,89.40
2022-10-04T05:13:40.138Z,88.83
2022-10-04T05:16:39.713Z,89.68
2022-10-04T05:19:14.116Z,89.80
2022-10-04T05:21:46.919Z,90.72
2022-10-04T05:24:33.287Z,89.56
2022-10-04T05:27:07.850Z,89.57
2022-10-04T05:29:39.330Z,90.67
2022-10-04T05:32:29.737Z,92.17
2022-10-04T05:34:57.936Z,90.92
2022-10-04T05:37:30.657Z,91.13
2022-10-04T05:40:15.984Z,89.98
2022-10-04T05:42:45.975Z,89.46
2022-10-04T05:45:23.493Z,87.98
2022-10-04T05:47:53.715Z,88.34
2022-10-04T05:50:30.091Z,87.42
2022-10-04T05:53:33.093Z,86.47
2022-10-04T05:56:06.484Z,86.81
2022-10-04T05:58:42.781Z,87.25
2022-10-04T06:01:20.684Z,84.94
2022-10-04T06:04:04.787Z,84.50
2022-10-04T06:06:48.717Z,85.67
2022-10-04T06:09:34.888Z,85.63
2022-10-04T06:12:13.404Z,86.43
2022-10-04T06:14:56.513Z,85.53
2022-10-04T06:17:26.749Z,83.72
2022-10-04T06:20:13.681Z,84.30
2022-10-04T06:22:54.809Z,84.33
2022-10-04T06:25:29.264Z,85.86
2022-10-04T06:28:21.050Z,86.50
2022-10-04T06:31:09.619Z,85.81
2022-10-04T06:33:59.176Z,83.90
2022-10-04T06:36:33.017Z,82.00
2022-10-04T06:39:32.988Z,81.77
2022-10-04T06:42:12.837Z,83.97
2022-10-04T06:45:01.815Z,86.40
2022-10-04T06:47:48.146Z,86.79
2022-10-04T06:50:28.658Z,86.07
2022-10-04T06:53:10.887Z,84.02
2022-10-04T06:55:41.119Z,82.31
2022-10-04T06:58:11.483Z,79.68
2022-10-04T07:00:52.768Z,79.99
2022-10-04T07:03:32.244Z,80.40
2022-10-04T07:06:05.166Z,76.71
2022-10-04T07:08:50.114Z,78.40
2022-10-04T07:11:30.334Z,83.88
2022-10-04T07:14:05.990Z,81.78
2022-10-04T07:16:49.250Z,78.45
2022-10-04T07:19:39.090Z,76.67
2022-10-04T07:22:06.554Z,73.38
2022-10-04T07:25:11.757Z,71.05
2022-10-04T07:27:42.159Z,73.67
2022-10-04T07:30:20.802Z,65.98
2022-10-04T07:32:53.008Z,66.26
2022-10-04T07:35:33.927Z,69.34
2022-10-04T07:38:17.642Z,62.59
2022-10-04T07:41:49.643Z,61.96
2022-10-04T07:44:42.434Z,69.82
2022-10-04T07:47:21.725Z,61.70
2022-10-04T07:49:54.069Z,65.57
2022-10-04T07:52:46.060Z,60.73
2022-10-04T07:55:45.448Z,63.89
2022-10-04T07:58:27.054Z,67.18
2022-10-04T08:01:33.298Z,64.61
2022-10-04T08:04:20.153Z,69.60
2022-10-04T08:07:15.410Z,71.38
2022-10-04T08:10:34.615Z,68.25
2022-10-04T08:13:26.415Z,67.42
2022-10-04T08:15:59.482Z,69.54
2022-10-04T08:18:46.262Z,68.22
2022-10-04T08:22:03.061Z,66.65
2022-10-04T08:24:59.219Z,66.94
2022-10-04T08:27:39.762Z,64.92
2022-10-04T08:30:25.727Z,66.02
2022-10-04T08:33:02.033Z,65.30
2022-10-04T08:35:36.469Z,64.83
2022-10-04T08:38:42.434Z,65.81
2022-10-04T08:41:30.914Z,65.20
2022-10-04T08:44:17.014Z,67.97
2022-10-04T08:47:27.062Z,62.08
2022-10-04T08:50:06.245Z,61.27
2022-10-04T08:53:11.355Z,56.39
2022-10-04T08:56:17.631Z,49.97
2022-10-04T08:58:56.739Z,51.81
2022-10-04T09:01:56.713Z,52.42
2022-10-04T09:04:51.231Z,53.61
2022-10-04T09:08:04.424Z,57.50
2022-10-04T09:10:59.554Z,51.63
2022-10-04T09:13:45.177Z,51.13
2022-10-04T09:16:24.844Z,54.08
2022-10-04T09:19:21.945Z,51.50
2022-10-04T09:22:25.400Z,52.42
2022-10-04T09:25:23.388Z,51.35
2022-10-04T09:28:09.978Z,51.88
2022-10-04T09:30:58.545Z,53.82
2022-10-04T09:33:48.087Z,52.98
2022-10-04T09:36:34.225Z,53.97
2022-10-04T09:39:30.011Z,52.53
2022-10-04T09:42:19.334Z,54.72
2022-10-04T09:45:13.512Z,50.43
2022-10-04T09:47:45.830Z,53.61
2022-10-04T09:50:35.692Z,52.29
2022-10-04T09:53:20.435Z,54.57
2022-10-04T09:56:27.084Z,49.93
2022-10-04T09:59:13.721Z,52.31
2022-10-04T10:02:13.024Z,51.50
2022-10-04T10:04:52.899Z,54.67
2022-10-04T10:07:32.315Z,58.16
2022-10-04T10:10:36.720Z,53.40
2022-10-04T10:13:43.011Z,51.22
2022-10-04T10:16:25.821Z,53.53
2022-10-04T10:19:13.086Z,52.93
2022-10-04T10:21:43.978Z,52.43
2022-10-04T10:24:37.983Z,51.23
2022-10-04T10:27:25.148Z,52.35
2022-10-04T10:30:11.030Z,55.14
2022-10-04T10:32:47.080Z,52.98
2022-10-04T10:35:32.900Z,50.95
2022-10-04T10:38:04.796Z,53.27
2022-10-04T10:40:41.828Z,54.10
2022-10-04T10:43:51.191Z,55.00
2022-10-04T10:46:43.027Z,57.15
2022-10-04T10:49:10.600Z,56.50
2022-10-04T10:51:55.880Z,53.96
2022-10-04T10:54:45.955Z,52.24
2022-10-04T10:57:48.286Z,53.12
2022-10-04T11:00:21.013Z,54.08
2022-10-04T11:03:14.591Z,55.88
2022-10-04T11:06:01.646Z,55.84
2022-10-04T11:08:58.680Z,55.05
2022-10-04T11:11:31.911Z,55.22
2022-10-04T11:14:33.176Z,55.31
2022-10-04T11:17:13.652Z,54.16
2022-10-04T11:19:55.875Z,55.15
2022-10-04T11:23:00.585Z,55.96
2022-10-04T11:25:45.899Z,54.62
2022-10-04T11:28:47.613Z,52.26
2022-10-04T11:31:32.697Z,52.27
2022-10-04T11:34:16.572Z,51.19
2022-10-04T11:36:56.345Z,51.41
2022-10-04T11:39:42.551Z,54.32
2022-10-04T11:42:30.466Z,54.06
2022-10-04T11:45:17.408Z,52.27
2022-10-04T11:47:44.742Z,52.46
2022-10-04T11:50:38.992Z,51.61
2022-10-04T11:53:52.951Z,50.19
2022-10-04T11:56:34.182Z,51.24
2022-10-04T11:59:21.033Z,49.15
2022-10-04T12:02:27.760Z,48.85
2022-10-04T12:05:24.896Z,52.55
2022-10-04T12:08:29.642Z,51.03
2022-10-04T12:11:21.917Z,52.45
2022-10-04T12:13:51.995Z,54.17
2022-10-04T12:16:45.672Z,53.50
2022-10-04T12:19:32.581Z,51.52
2022-10-04T12:22:02.746Z,50.60
2022-10-04T12:24:57.881Z,49.35
2022-10-04T12:27:39.133Z,48.78
2022-10-04T12:30:28.444Z,50.27
2022-10-04T12:33:11.330Z,50.20
2022-10-04T12:35:44.312Z,51.33
2022-10-04T12:38:27.736Z,49.69
2022-10-04T12:41:32.671Z,51.22
2022-10-04T12:44:18.518Z,50.49
2022-10-04T12:47:36.961Z,50.36
2022-10-04T12:50:30.344Z,50.01
2022-10-04T12:53:05.311Z,48.34
2022-10-04T12:55:38.485Z,50.61
2022-10-04T12:58:21.776Z,53.88
2022-10-04T13:00:53.345Z,51.94
2022-10-04T13:03:23.466Z,53.06
2022-10-04T13:06:02.918Z,51.73
2022-10-04T13:08:51.857Z,50.55
2022-10-04T13:11:43.783Z,50.55
2022-10-04T13:14:36.000Z,53.67
2022-10-04T13:17:35.899Z,51.29
2022-10-04T13:20:45.502Z,51.11
2022-10-04T13:23:47.817Z,50.95
2022-10-04T13:26:33.229Z,51.41
2022-10-04T13:29:07.421Z,54.25
2022-10-04T13:31:47.339Z,53.71
2022-10-04T13:34:36.550Z,52.01
2022-10-04T13:37:07.202Z,53.81
2022-10-04T13:39:46.631Z,54.19
2022-10-04T13:42:29.252Z,53.61
2022-10-04T13:45:21.573Z,56.93
2022-10-04T13:48:26.468Z,55.62
2022-10-04T13:51:02.366Z,55.60
2022-10-04T13:53:59.626Z,55.86
2022-10-04T13:57:04.540Z,54.29
2022-10-04T13:59:41.982Z,54.98
2022-10-04T14:02:46.340Z,55.24
2022-10-04T14:05:35.311Z,55.90
2022-10-04T14:08:14.939Z,55.93
2022-10-04T14:11:09.020Z,56.16
2022-10-04T14:13:43.104Z,54.89
2022-10-04T14:17:03.495Z,53.07
2022-10-04T14:19:50.172Z,55.76
2022-10-04T14:22:54.532Z,54.85
2022-10-04T14:25:34.031Z,54.96
2022-10-04T14:28:33.448Z,53.54
2022-10-04T14:31:01.923Z,53.89
2022-10-04T14:33:54.740Z,54.45
2022-10-04T14:37:03.719Z,56.11
2022-10-04T14:39:36.873Z,55.37
2022-10-04T14:42:33.418Z,54.52
2022-10-04T14:45:16.411Z,56.04
2022-10-04T14:48:08.067Z,57.15
2022-10-04T14:50:48.459Z,55.04
2022-10-04T14:53:22.131Z,55.59
2022-10-04T14:56:09.291Z,53.90
2022-10-04T14:58:58.142Z,55.05
2022-10-04T15:01:27.872Z,56.10
2022-10-04T15:03:58.182Z,55.71
2022-10-04T15:06:49.188Z,55.42
2022-10-04T15:09:38.236Z,56.25
2022-10-04T15:12:58.453Z,56.07
2022-10-04T15:15:32.559Z,57.02
2022-10-04T15:18:22.129Z,55.41
2022-10-04T15:20:52.594Z,56.27
2022-10-04T15:23:58.520Z,58.16
2022-10-04T15:26:32.294Z,57.77
2022-10-04T15:29:23.911Z,56.93
2022-10-04T15:32:21.885Z,56.11
2022-10-04T15:35:01.879Z,58.00
2022-10-04T15:37:29.551Z,58.30
2022-10-04T15:40:21.017Z,58.08
2022-10-04T15:43:18.055Z,58.73
2022-10-04T15:46:09.565Z,59.72
2022-10-04T15:48:51.963Z,59.48
2022-10-04T15:51:42.673Z,59.29
2022-10-04T15:55:02.528Z,59.39
2022-10-04T15:57:49.613Z,61.98
2022-10-04T16:00:27.511Z,60.38
2022-10-04T16:03:09.281Z,61.29
2022-10-04T16:05:44.112Z,59.71
2022-10-04T16:08:11.506Z,61.16
2022-10-04T16:11:17.005Z,60.65
2022-10-04T16:14:00.317Z,60.94
2022-10-04T16:16:48.515Z,60.76
2022-10-04T16:19:36.377Z,61.52
2022-10-04T16:22:15.848Z,60.80
2022-10-04T16:24:48.926Z,61.68
2022-10-04T16:27:37.747Z,62.75
2022-10-04T16:30:27.422Z,63.76
2022-10-04T16:32:58.446Z,64.28
2022-10-04T16:35:34.810Z,64.53
2022-10-04T16:38:17.059Z,64.77
2022-10-04T16:41:07.572Z,65.16
2022-10-04T16:43:39.619Z,65.22
2022-10-04T16:46:17.741Z,64.10
2022-10-04T16:48:58.910Z,64.58
2022-10-04T16:52:02.937Z,66.24
2022-10-04T16:54:45.476Z,66.26
2022-10-04T16:57:18.132Z,65.23
2022-10-04T16:59:49.717Z,67.63
2022-10-04T17:02:43.663Z,68.02
2022-10-04T17:05:33.074Z,69.37
2022-10-04T17:08:15.333Z,68.74
2022-10-04T17:10:48.717Z,68.21
2022-10-04T17:13:43.747Z,67.62
2022-10-04T17:16:30.082Z,68.10
2022-10-04T17:19:18.271Z,66.80
2022-10-04T17:22:20.370Z,67.29
2022-10-04T17:25:12.781Z,67.81
2022-10-04T17:27:56.405Z,68.46
2022-10-04T17:30:30.570Z,68.30
2022-10-04T17:33:24.123Z,70.50
2022-10-04T17:35:58.391Z,68.32
2022-10-04T17:38:50.690Z,69.86
2022-10-04T17:41:37.381Z,69.74
2022-10-04T17:44:24.262Z,71.74
2022-10-04T17:47:14.874Z,70.78
2022-10-04T17:50:20.977Z,70.80
2022-10-04T17:53:13.784Z,71.89
2022-10-04T17:55:48.122Z,70.43
2022-10-04T17:58:20.278Z,71.11
2022-10-04T18:00:53.503Z,71.92
2022-10-04T18:03:31.678Z,72.28
2022-10-04T18:06:05.237Z,71.46
2022-10-04T18:08:46.615Z,71.39
2022-10-04T18:11:17.387Z,72.25
2022-10-04T18:13:57.545Z,72.55
2022-10-04T18:16:32.472Z,72.87
2022-10-04T18:19:30.626Z,74.16
2022-10-04T18:22:11.498Z,74.11
2022-10-04T18:24:38.883Z,74.11
2022-10-04T18:27:23.926Z,73.07
2022-10-04T18:30:18.765Z,74.97
2022-10-04T18:32:48.865Z,75.22
2022-10-04T18:35:25.157Z,76.20
2022-10-04T18:37:58.144Z,76.74
2022-10-04T18:40:34.649Z,76.70
2022-10-04T18:43:02.176Z,76.11
2022-10-04T18:45:34.336Z,76.39
2022-10-04T18:48:16.089Z,76.64
2022-10-04T18:50:45.750Z,79.54
2022-10-04T18:53:46.023Z,81.91
2022-10-04T18:56:13.993Z,80.60
2022-10-04T18:59:18.677Z,79.52
2022-10-04T19:02:04.209Z,78.69
2022-10-04T19:05:06.834Z,77.62
2022-10-04T19:07:51.417Z,78.31
2022-10-04T19:10:33.288Z,76.91
2022-10-04T19:13:10.933Z,76.78
2022-10-04T19:15:38.890Z,76.27
2022-10-04T19:18:24.476Z,77.37
2022-10-04T19:21:07.308Z,77.15
2022-10-04T19:24:00.209Z,78.90
2022-10-04T19:26:37.493Z,78.11
2022-10-04T19:29:23.698Z,79.43
2022-10-04T19:32:02.465Z,80.10
2022-10-04T19:34:39.076Z,82.31
2022-10-04T19:37:13.943Z,83.04
2022-10-04T19:40:30.378Z,83.77
2022-10-04T19:43:20.808Z,82.26
2022-10-04T19:46:08.455Z,81.92
2022-10-04T19:48:46.414Z,82.39
2022-10-04T19:51:28.273Z,82.86
2022-10-04T19:54:16.305Z,82.83
2022-10-04T19:56:51.229Z,83.47
2022-10-04T19:59:32.596Z,84.18
2022-10-04T20:03:30.107Z,83.84
2022-10-04T20:12:45.170Z,82.77
2022-10-04T20:24:08.684Z,90.85
2022-10-04T20:27:01.612Z,91.01
2022-10-04T20:29:38.078Z,90.22
2022-10-04T20:32:37.543Z,90.47
2022-10-04T20:35:15.121Z,90.61
2022-10-04T20:38:27.315Z,87.88
2022-10-04T20:41:11.423Z,87.35
2022-10-04T20:44:04.054Z,87.65
2022-10-04T20:46:39.674Z,86.59
2022-10-04T20:49:17.149Z,86.49
2022-10-04T20:51:51.047Z,87.78
2022-10-04T20:54:20.358Z,87.06
2022-10-04T20:56:50.412Z,86.88
2022-10-04T20:59:18.905Z,86.61
2022-10-04T21:02:02.527Z,89.87
2022-10-04T21:04:41.571Z,89.68
2022-10-04T21:07:15.372Z,90.60
2022-10-04T21:09:43.272Z,86.57
2022-10-04T21:12:35.583Z,88.65
2022-10-04T21:15:27.643Z,88.24
2022-10-04T21:18:09.778Z,88.92
2022-10-04T21:20:51.004Z,90.26
2022-10-04T21:23:30.450Z,88.99
2022-10-04T21:26:38.738Z,90.11
2022-10-04T21:29:06.301Z,88.12
2022-10-04T21:31:34.152Z,86.03
2022-10-04T21:34:02.044Z,85.82
2022-10-04T21:36:37.433Z,86.57
2022-10-04T21:39:15.140Z,88.49
2022-10-04T21:41:50.122Z,88.58
2022-10-04T21:44:24.284Z,88.50
2022-10-04T21:47:09.004Z,88.44
2022-10-04T21:49:50.840Z,87.88
2022-10-04T21:52:19.100Z,87.77
2022-10-04T21:54:46.940Z,87.89
2022-10-04T21:57:46.682Z,86.80
2022-10-04T22:00:14.361Z,86.85
2022-10-04T22:02:41.908Z,85.85
2022-10-04T22:05:09.784Z,85.97
2022-10-04T22:07:37.559Z,85.16
2022-10-04T22:10:05.692Z,85.42
2022-10-04T22:12:33.261Z,85.43
2022-10-04T22:15:00.948Z,85.82
2022-10-04T22:17:28.347Z,85.05
2022-10-04T22:19:55.828Z,84.08
2022-10-04T22:22:23.343Z,85.02
2022-10-04T22:24:50.813Z,86.55
2022-10-04T22:27:20.666Z,84.23
2022-10-04T22:29:49.022Z,84.69
2022-10-04T22:32:27.964Z,84.96
2022-10-04T22:35:12.279Z,84.32
2022-10-04T22:37:39.935Z,83.70
2022-10-04T22:40:14.515Z,84.08
2022-10-04T22:42:42.766Z,84.08
2022-10-04T22:45:20.881Z,84.98
2022-10-04T22:47:48.857Z,85.06
2022-10-04T22:50:33.850Z,85.50
2022-10-04T22:53:12.838Z,86.19
2022-10-04T22:55:41.486Z,86.83
2022-10-04T22:58:14.346Z,90.75
2022-10-04T23:00:43.179Z,89.75
2022-10-04T23:03:31.410Z,90.76
2022-10-04T23:06:00.817Z,96.74
2022-10-04T23:08:29.411Z,98.48
2022-10-04T23:10:59.473Z,93.67
2022-10-04T23:13:27.587Z,92.98
2022-10-04T23:16:00.345Z,95.64
2022-10-04T23:18:30.417Z,97.03
2022-10-04T23:21:01.785Z,95.94
2022-10-04T23:23:31.053Z,96.11
2022-10-04T23:25:58.712Z,95.47
2022-10-04T23:28:26.431Z,95.86
2022-10-04T23:31:10.911Z,95.50
2022-10-04T23:33:38.532Z,92.86
2022-10-04T23:36:11.843Z,91.53
2022-10-04T23:38:39.713Z,92.36
2022-10-04T23:41:12.148Z,94.30
2022-10-04T23:43:39.727Z,96.73
2022-10-04T23:46:14.985Z,96.59
2022-10-04T23:48:42.937Z,95.35
2022-10-04T23:51:13.389Z,93.29
2022-10-04T23:53:42.517Z,92.04
2022-10-04T23:56:21.619Z,92.21
2022-10-04T23:58:51.173Z,93.04
